Time;durP1;ratioP1;P1;durP2;ratioP2;P2;SDS_P1;SDS_P2;PMS_P1;PMS_P2;Temp;Humidity;BMP_temperature;BMP_pressure;BME280_temperature;BME280_humidity;BME280_pressure;Samples;Min_cycle;Max_cycle;Signal;HPM_P1;HPM_P2
2023/08/20 00:01:27;;;;;;;11.60;6.70;;;17.80;99.90;;;;;;5046306;28;20053;-74
2023/08/20 00:03:53;;;;;;;12.60;5.80;;;17.80;99.90;;;;;;5039999;28;20057;-74
2023/08/20 00:06:20;;;;;;;10.77;6.23;;;17.80;99.90;;;;;;5040416;28;20059;-74
2023/08/20 00:08:46;;;;;;;9.55;5.78;;;17.80;99.90;;;;;;5042941;28;20041;-74
2023/08/20 00:11:12;;;;;;;11.80;6.38;;;17.70;99.90;;;;;;5047268;28;20094;-74
2023/08/20 00:13:39;;;;;;;11.82;5.93;;;17.70;99.90;;;;;;5042179;28;20098;-74
2023/08/20 00:16:05;;;;;;;12.07;6.20;;;17.80;99.90;;;;;;5035206;28;20108;-74
2023/08/20 00:18:31;;;;;;;12.27;6.30;;;17.80;99.90;;;;;;5040156;28;20086;-74
2023/08/20 00:20:57;;;;;;;13.30;6.03;;;17.90;99.90;;;;;;5041307;28;20045;-74
2023/08/20 00:23:23;;;;;;;12.63;6.00;;;17.90;99.90;;;;;;5057715;28;20045;-74
2023/08/20 00:25:49;;;;;;;13.27;5.75;;;18.00;99.90;;;;;;5045683;28;20296;-74
2023/08/20 00:28:15;;;;;;;15.00;5.50;;;18.00;99.90;;;;;;5041942;28;20048;-74
2023/08/20 00:30:41;;;;;;;10.68;5.47;;;18.00;99.90;;;;;;5040733;28;20064;-74
2023/08/20 00:33:06;;;;;;;12.20;5.90;;;18.00;99.90;;;;;;5048298;28;21112;-74
2023/08/20 00:35:32;;;;;;;12.13;5.13;;;18.00;99.90;;;;;;5044997;28;20045;-74
2023/08/20 00:37:58;;;;;;;11.10;5.60;;;18.00;99.90;;;;;;5033897;28;20049;-74
2023/08/20 00:40:24;;;;;;;14.27;5.72;;;18.10;99.90;;;;;;5053980;28;20050;-73
2023/08/20 00:42:49;;;;;;;9.77;5.75;;;18.10;99.90;;;;;;5041814;28;20179;-74
2023/08/20 00:45:18;;;;;;;13.43;5.97;;;18.10;99.90;;;;;;5059245;28;21675;-74
2023/08/20 00:47:44;;;;;;;11.27;5.60;;;18.10;99.90;;;;;;5040908;28;20069;-74
2023/08/20 00:50:11;;;;;;;10.50;5.32;;;18.10;99.90;;;;;;5044065;28;20076;-74
2023/08/20 00:52:38;;;;;;;12.73;5.82;;;18.10;99.90;;;;;;5046209;28;20047;-74
2023/08/20 00:55:12;;;;;;;12.02;5.30;;;18.10;99.90;;;;;;5039153;28;20124;-74
2023/08/20 00:57:39;;;;;;;12.00;5.60;;;18.00;99.90;;;;;;5044752;28;20041;-74
2023/08/20 01:00:10;;;;;;;11.13;5.30;;;18.00;99.90;;;;;;5041263;28;20036;-74
2023/08/20 01:02:37;;;;;;;12.57;5.97;;;18.00;99.90;;;;;;5042476;28;20045;-74
2023/08/20 01:05:04;;;;;;;;;;;18.00;99.90;;;;;;5037806;28;20242;-74
2023/08/20 01:07:37;;;;;;;13.00;6.10;;;17.90;99.90;;;;;;5034643;28;20003;-74
2023/08/20 01:10:33;;;;;;;10.00;5.88;;;17.90;99.90;;;;;;5045466;28;20633;-74
2023/08/20 01:13:00;;;;;;;11.77;6.28;;;17.80;99.90;;;;;;5057114;28;20080;-73
2023/08/20 01:15:25;;;;;;;11.65;6.82;;;17.80;99.90;;;;;;5044023;28;20071;-74
2023/08/20 01:17:51;;;;;;;12.88;6.78;;;17.80;99.90;;;;;;5047549;28;20040;-74
2023/08/20 01:20:17;;;;;;;13.98;7.43;;;17.80;99.90;;;;;;5042560;28;20037;-74
2023/08/20 01:22:58;;;;;;;14.10;6.90;;;17.70;99.90;;;;;;5045151;28;20140;-74
2023/08/20 01:25:55;;;;;;;14.82;7.00;;;17.80;99.90;;;;;;5042935;28;20094;-74
2023/08/20 01:28:29;;;;;;;12.82;7.30;;;17.70;99.90;;;;;;5027919;28;20049;-74
2023/08/20 01:30:57;;;;;;;13.07;6.90;;;17.70;99.90;;;;;;5035101;28;21517;-74
2023/08/20 01:33:26;;;;;;;9.60;6.05;;;17.70;99.90;;;;;;5041247;28;20051;-73
2023/08/20 01:35:53;;;;;;;11.35;6.97;;;17.60;99.90;;;;;;5037095;28;20542;-73
2023/08/20 01:38:18;;;;;;;10.70;6.28;;;17.60;99.90;;;;;;5044373;28;20064;-73
2023/08/20 01:40:44;;;;;;;13.38;7.20;;;17.50;99.90;;;;;;5047985;28;20456;-73
2023/08/20 01:43:10;;;;;;;13.77;7.10;;;17.50;99.90;;;;;;5050368;28;20037;-73
2023/08/20 01:45:36;;;;;;;10.85;6.70;;;17.50;99.90;;;;;;5044520;28;20510;-73
2023/08/20 01:48:03;;;;;;;11.38;6.60;;;17.50;99.90;;;;;;5038663;28;20037;-73
2023/08/20 01:50:29;;;;;;;;;;;17.50;99.90;;;;;;5043643;28;20056;-74
2023/08/20 01:52:54;;;;;;;14.82;6.97;;;17.40;99.90;;;;;;5047678;28;19921;-74
2023/08/20 01:55:20;;;;;;;8.38;5.90;;;17.40;99.90;;;;;;5040571;28;20088;-75
2023/08/20 01:57:46;;;;;;;13.25;6.88;;;17.40;99.90;;;;;;5042760;28;20045;-74
2023/08/20 02:00:12;;;;;;;11.52;6.78;;;17.30;99.90;;;;;;5046026;28;20229;-73
2023/08/20 02:02:38;;;;;;;11.40;7.03;;;17.30;99.90;;;;;;5040637;28;20056;-73
2023/08/20 02:05:04;;;;;;;9.57;6.38;;;17.20;99.90;;;;;;5041019;28;20041;-74
2023/08/20 02:07:29;;;;;;;11.70;6.30;;;17.20;99.90;;;;;;5041126;28;20044;-74
2023/08/20 02:09:55;;;;;;;10.98;5.43;;;17.20;99.90;;;;;;5044383;28;20044;-74
2023/08/20 02:12:21;;;;;;;7.70;4.97;;;17.20;99.90;;;;;;5045637;28;20493;-74
2023/08/20 02:14:47;;;;;;;10.15;5.93;;;17.10;99.90;;;;;;5041405;28;20060;-74
2023/08/20 02:17:14;;;;;;;9.48;6.18;;;17.10;99.90;;;;;;5044275;28;21982;-74
2023/08/20 02:19:39;;;;;;;10.60;6.57;;;17.00;99.90;;;;;;5041458;28;20136;-74
2023/08/20 02:22:05;;;;;;;9.20;6.40;;;17.00;99.90;;;;;;5045213;28;20116;-72
2023/08/20 02:24:31;;;;;;;13.05;6.65;;;17.00;99.90;;;;;;5041819;28;20030;-74
2023/08/20 02:26:57;;;;;;;9.90;6.93;;;17.00;99.90;;;;;;5058204;28;20477;-74
2023/08/20 02:29:23;;;;;;;11.02;6.70;;;17.00;99.90;;;;;;5043300;28;20037;-74
2023/08/20 02:31:48;;;;;;;11.45;6.32;;;17.10;99.90;;;;;;5050683;28;20033;-74
2023/08/20 02:34:14;;;;;;;14.13;7.78;;;17.00;99.90;;;;;;5045944;28;20037;-74
2023/08/20 02:36:40;;;;;;;13.63;7.65;;;17.00;99.90;;;;;;5040268;28;20036;-74
2023/08/20 02:39:07;;;;;;;14.98;6.85;;;17.10;99.90;;;;;;5047029;28;20044;-74
2023/08/20 02:41:36;;;;;;;10.32;6.30;;;17.00;99.90;;;;;;5048201;28;20080;-74
2023/08/20 02:44:03;;;;;;;12.52;6.68;;;17.00;99.90;;;;;;5040519;28;20072;-75
2023/08/20 02:46:29;;;;;;;10.95;7.15;;;17.00;99.90;;;;;;5047844;28;20186;-76
2023/08/20 02:48:55;;;;;;;11.45;6.72;;;16.90;99.90;;;;;;5058046;28;20480;-75
2023/08/20 02:51:20;;;;;;;8.88;6.25;;;16.90;99.90;;;;;;5050309;28;20124;-74
2023/08/20 02:53:46;;;;;;;10.60;6.70;;;16.90;99.90;;;;;;5059764;28;20045;-76
2023/08/20 02:56:12;;;;;;;11.02;7.93;;;16.90;99.90;;;;;;5042766;28;20048;-76
2023/08/20 02:58:37;;;;;;;13.82;8.02;;;16.90;99.90;;;;;;5050531;28;20045;-75
2023/08/20 03:01:03;;;;;;;9.70;8.00;;;16.90;99.90;;;;;;5048933;28;20041;-73
2023/08/20 03:03:29;;;;;;;13.93;8.35;;;16.90;99.90;;;;;;5035574;28;20065;-74
2023/08/20 03:05:55;;;;;;;12.32;8.50;;;16.90;99.90;;;;;;5048605;28;20578;-74
2023/08/20 03:08:20;;;;;;;13.15;9.35;;;17.00;99.90;;;;;;5051352;28;20048;-74
2023/08/20 03:10:46;;;;;;;12.57;8.88;;;17.00;99.90;;;;;;5049338;28;20648;-74
2023/08/20 03:13:12;;;;;;;12.52;8.68;;;17.00;99.90;;;;;;5060657;28;20049;-76
2023/08/20 03:15:37;;;;;;;13.90;9.25;;;17.00;99.90;;;;;;5050484;28;20083;-80
2023/08/20 03:18:03;;;;;;;14.32;9.75;;;17.10;99.90;;;;;;5046458;28;20048;-74
2023/08/20 03:20:31;;;;;;;13.52;9.73;;;17.10;99.90;;;;;;5044536;28;20037;-74
2023/08/20 03:22:56;;;;;;;;;;;17.10;99.90;;;;;;5060199;28;20145;-74
2023/08/20 03:25:22;;;;;;;12.20;8.88;;;17.10;99.90;;;;;;5049008;28;20058;-74
2023/08/20 03:27:51;;;;;;;15.32;10.50;;;17.10;99.90;;;;;;5068416;28;20044;-73
2023/08/20 03:30:17;;;;;;;11.77;8.68;;;17.10;99.90;;;;;;5049116;28;20048;-74
2023/08/20 03:32:42;;;;;;;14.30;8.77;;;17.00;99.90;;;;;;5047823;28;20044;-74
2023/08/20 03:35:09;;;;;;;12.38;8.30;;;17.00;99.90;;;;;;5048591;28;20049;-74
2023/08/20 03:37:34;;;;;;;14.27;9.63;;;17.00;99.90;;;;;;5045243;28;20033;-74
2023/08/20 03:40:00;;;;;;;11.90;9.38;;;16.90;99.90;;;;;;5025119;28;20041;-74
2023/08/20 03:42:26;;;;;;;16.23;9.73;;;16.90;99.90;;;;;;5051040;28;20056;-74
2023/08/20 03:44:51;;;;;;;16.25;10.80;;;16.90;99.90;;;;;;5046110;28;20052;-74
2023/08/20 03:47:20;;;;;;;13.75;10.10;;;16.90;99.90;;;;;;5045801;28;20041;-74
2023/08/20 03:49:47;;;;;;;13.55;9.80;;;16.90;99.90;;;;;;5044981;28;20048;-74
2023/08/20 03:52:13;;;;;;;14.30;9.10;;;16.90;99.90;;;;;;5047051;28;20137;-74
2023/08/20 03:54:39;;;;;;;13.45;8.95;;;16.90;99.90;;;;;;5038063;28;20076;-74
2023/08/20 03:57:04;;;;;;;12.93;9.55;;;16.90;99.90;;;;;;5042086;28;20040;-74
2023/08/20 03:59:31;;;;;;;13.00;9.27;;;16.90;99.90;;;;;;5048014;28;20063;-74
2023/08/20 04:01:57;;;;;;;11.43;8.98;;;16.80;99.90;;;;;;5049671;28;20125;-74
2023/08/20 04:04:23;;;;;;;11.50;9.23;;;16.80;99.90;;;;;;5048409;28;20092;-74
2023/08/20 04:06:48;;;;;;;13.52;9.35;;;16.70;99.90;;;;;;5040613;28;20091;-75
2023/08/20 04:09:14;;;;;;;12.93;9.57;;;16.70;99.90;;;;;;5049237;28;20045;-74
2023/08/20 04:11:40;;;;;;;13.20;10.02;;;16.70;99.90;;;;;;5045190;28;20129;-74
2023/08/20 04:14:06;;;;;;;15.05;9.55;;;16.70;99.90;;;;;;5044693;28;20058;-74
2023/08/20 04:16:31;;;;;;;13.95;9.85;;;16.70;99.90;;;;;;5043329;28;20051;-75
2023/08/20 04:18:57;;;;;;;11.05;9.18;;;16.70;99.90;;;;;;5041664;28;20075;-74
2023/08/20 04:21:23;;;;;;;13.82;9.90;;;16.70;99.90;;;;;;5057240;28;20044;-75
2023/08/20 04:23:49;;;;;;;12.45;9.63;;;16.70;99.90;;;;;;5045934;28;20051;-74
2023/08/20 04:26:14;;;;;;;14.32;9.85;;;16.70;99.90;;;;;;5050112;28;20061;-74
2023/08/20 04:28:40;;;;;;;12.88;9.45;;;16.70;99.90;;;;;;5046675;28;20484;-75
2023/08/20 04:31:06;;;;;;;11.10;8.48;;;16.70;99.90;;;;;;5040836;28;21307;-74
2023/08/20 04:33:31;;;;;;;11.48;8.65;;;16.60;99.90;;;;;;5038932;28;20588;-74
2023/08/20 04:35:57;;;;;;;14.30;10.23;;;16.60;99.90;;;;;;5045603;28;20419;-74
2023/08/20 04:38:23;;;;;;;14.13;10.02;;;16.50;99.90;;;;;;5045741;28;20068;-73
2023/08/20 04:40:49;;;;;;;10.48;8.65;;;16.50;99.90;;;;;;5044815;28;20098;-74
2023/08/20 04:43:15;;;;;;;10.32;8.52;;;16.50;99.90;;;;;;5047405;28;20049;-74
2023/08/20 04:45:42;;;;;;;12.13;9.45;;;16.40;99.90;;;;;;5048257;28;20073;-74
2023/08/20 04:48:08;;;;;;;12.77;9.70;;;16.40;99.90;;;;;;5047525;28;20068;-73
2023/08/20 04:50:34;;;;;;;11.85;9.55;;;16.40;99.90;;;;;;5044969;28;20053;-74
2023/08/20 04:52:59;;;;;;;10.20;8.85;;;16.40;99.90;;;;;;5046321;28;20435;-73
2023/08/20 04:55:26;;;;;;;9.60;8.63;;;16.30;99.90;;;;;;5042430;28;20053;-73
2023/08/20 04:57:52;;;;;;;11.18;9.15;;;16.30;99.90;;;;;;5064266;28;20052;-73
2023/08/20 05:00:18;;;;;;;12.45;9.38;;;16.30;99.90;;;;;;5050251;28;20052;-73
2023/08/20 05:02:43;;;;;;;12.40;9.75;;;16.40;99.90;;;;;;5042846;28;20042;-74
2023/08/20 05:05:10;;;;;;;12.60;9.85;;;16.40;99.90;;;;;;5042983;28;20056;-74
2023/08/20 05:07:36;;;;;;;15.18;9.93;;;16.40;99.90;;;;;;5041722;28;20041;-74
2023/08/20 05:10:02;;;;;;;13.00;10.35;;;16.50;99.90;;;;;;5047411;28;20543;-74
2023/08/20 05:12:28;;;;;;;12.32;10.70;;;16.50;99.90;;;;;;5047750;28;20041;-74
2023/08/20 05:14:54;;;;;;;13.45;10.38;;;16.50;99.90;;;;;;5048037;28;20056;-74
2023/08/20 05:17:19;;;;;;;15.20;11.55;;;16.60;99.90;;;;;;5047185;28;20041;-74
2023/08/20 05:19:45;;;;;;;13.63;11.07;;;16.70;99.90;;;;;;5048995;28;20037;-74
2023/08/20 05:22:11;;;;;;;13.88;11.60;;;16.70;99.90;;;;;;5043306;28;20041;-74
2023/08/20 05:24:37;;;;;;;14.77;11.40;;;16.80;99.90;;;;;;5063890;28;20055;-74
2023/08/20 05:27:04;;;;;;;13.75;12.13;;;16.80;99.90;;;;;;5040494;28;20056;-74
2023/08/20 05:29:30;;;;;;;17.03;14.23;;;16.90;99.90;;;;;;5048646;28;20388;-74
2023/08/20 05:31:55;;;;;;;16.25;13.98;;;16.90;99.90;;;;;;5035813;28;20042;-74
2023/08/20 05:34:21;;;;;;;19.85;15.55;;;17.00;99.90;;;;;;5047692;28;20498;-74
2023/08/20 05:36:46;;;;;;;18.95;15.15;;;17.10;99.90;;;;;;5039813;28;20099;-74
2023/08/20 05:39:12;;;;;;;19.95;16.23;;;17.10;99.90;;;;;;5039609;28;20071;-74
2023/08/20 05:41:38;;;;;;;21.35;19.05;;;17.10;99.90;;;;;;5044002;28;20037;-74
2023/08/20 05:44:04;;;;;;;21.00;18.90;;;17.20;99.90;;;;;;5044666;28;20160;-74
2023/08/20 05:46:29;;;;;;;19.65;15.50;;;17.20;99.90;;;;;;5062428;28;20389;-74
2023/08/20 05:48:55;;;;;;;18.13;14.30;;;17.30;99.90;;;;;;5060386;28;20049;-74
2023/08/20 05:51:21;;;;;;;17.20;15.30;;;17.30;99.90;;;;;;5043483;28;20056;-74
2023/08/20 05:53:46;;;;;;;17.00;15.25;;;17.40;99.90;;;;;;5047973;28;20040;-74
2023/08/20 05:56:12;;;;;;;15.45;13.70;;;17.40;99.90;;;;;;5050226;28;20045;-74
2023/08/20 05:58:38;;;;;;;17.63;14.18;;;17.40;99.90;;;;;;5050305;28;20037;-74
2023/08/20 06:01:03;;;;;;;19.98;16.52;;;17.50;99.90;;;;;;5048029;28;20494;-74
2023/08/20 06:03:29;;;;;;;18.38;15.63;;;17.60;99.90;;;;;;5042056;28;20053;-74
2023/08/20 06:05:57;;;;;;;18.50;15.20;;;17.60;99.90;;;;;;5050275;28;20041;-74
2023/08/20 06:08:23;;;;;;;19.15;14.13;;;17.70;99.90;;;;;;5049893;28;20059;-73
2023/08/20 06:10:49;;;;;;;17.02;14.45;;;17.70;99.90;;;;;;5045953;28;20040;-76
2023/08/20 06:13:14;;;;;;;17.27;15.07;;;17.80;99.90;;;;;;5055377;28;20078;-73
2023/08/20 06:15:40;;;;;;;17.60;14.68;;;17.80;99.90;;;;;;5047300;28;20033;-73
2023/08/20 06:18:06;;;;;;;19.30;15.05;;;17.80;99.90;;;;;;5055606;28;20076;-73
2023/08/20 06:20:31;;;;;;;19.33;15.05;;;17.90;99.90;;;;;;5044802;28;20601;-74
2023/08/20 06:22:57;;;;;;;17.95;15.32;;;17.90;99.90;;;;;;5049270;28;20037;-73
2023/08/20 06:25:23;;;;;;;16.80;15.02;;;18.00;99.90;;;;;;5043924;28;20073;-73
2023/08/20 06:27:48;;;;;;;22.20;15.68;;;18.00;99.90;;;;;;5046489;28;20098;-73
2023/08/20 06:30:14;;;;;;;20.45;15.73;;;18.10;99.90;;;;;;5061512;28;20057;-76
2023/08/20 06:32:40;;;;;;;17.60;14.18;;;18.10;99.90;;;;;;5045245;28;20084;-72
2023/08/20 06:35:06;;;;;;;19.42;14.50;;;18.20;99.90;;;;;;5042661;28;20075;-73
2023/08/20 06:37:32;;;;;;;16.00;13.98;;;18.30;99.90;;;;;;5052903;28;20546;-73
2023/08/20 06:39:57;;;;;;;20.73;14.27;;;18.40;99.90;;;;;;5047640;28;20040;-76
2023/08/20 06:42:23;;;;;;;20.55;15.32;;;18.40;99.90;;;;;;5051034;28;20094;-76
2023/08/20 06:44:49;;;;;;;20.20;15.30;;;18.50;99.90;;;;;;5051377;28;20040;-76
2023/08/20 06:47:15;;;;;;;20.27;16.20;;;18.60;99.90;;;;;;5035428;28;20037;-76
2023/08/20 06:49:40;;;;;;;19.17;15.00;;;18.70;99.90;;;;;;5042914;28;20045;-73
2023/08/20 06:52:06;;;;;;;18.02;14.75;;;18.80;99.90;;;;;;5047613;28;20057;-78
2023/08/20 06:54:32;;;;;;;18.27;14.52;;;18.90;99.90;;;;;;5044691;28;20045;-74
2023/08/20 06:56:57;;;;;;;21.05;14.25;;;18.90;99.90;;;;;;5046873;28;20144;-77
2023/08/20 06:59:24;;;;;;;17.50;12.70;;;19.00;99.90;;;;;;5045040;28;20523;-77
2023/08/20 07:01:49;;;;;;;14.67;11.23;;;19.10;99.90;;;;;;5050546;28;20040;-74
2023/08/20 07:04:15;;;;;;;15.10;11.30;;;19.20;99.90;;;;;;5042359;28;20055;-74
2023/08/20 07:06:41;;;;;;;15.13;10.73;;;19.20;99.90;;;;;;5042897;28;20049;-73
2023/08/20 07:09:07;;;;;;;18.55;10.15;;;19.30;99.90;;;;;;5040004;28;20037;-73
2023/08/20 07:11:33;;;;;;;15.40;10.13;;;19.40;99.90;;;;;;5039455;28;20045;-73
2023/08/20 07:13:59;;;;;;;14.27;8.93;;;19.50;99.90;;;;;;5040409;28;20053;-72
2023/08/20 07:16:24;;;;;;;13.27;8.80;;;19.50;99.90;;;;;;5046421;28;20041;-73
2023/08/20 07:18:50;;;;;;;12.73;8.13;;;19.60;99.90;;;;;;5040815;28;20044;-72
2023/08/20 07:21:16;;;;;;;14.13;8.50;;;19.70;99.90;;;;;;5042792;28;20049;-72
2023/08/20 07:23:41;;;;;;;14.02;8.88;;;19.70;99.90;;;;;;5049013;28;20048;-72
2023/08/20 07:26:10;;;;;;;16.17;9.10;;;19.80;99.90;;;;;;5063883;28;21883;-72
2023/08/20 07:31:20;;;;;;;15.15;8.38;;;19.90;99.90;;;;;;5054045;28;20085;-72
2023/08/20 07:33:47;;;;;;;15.23;8.88;;;20.10;99.90;;;;;;5047854;28;20574;-72
2023/08/20 07:36:13;;;;;;;13.10;7.93;;;20.10;99.90;;;;;;5049364;28;20420;-72
2023/08/20 07:38:42;;;;;;;16.90;8.80;;;20.20;99.90;;;;;;5039618;28;20128;-71
2023/08/20 07:41:09;;;;;;;12.30;8.23;;;20.20;99.90;;;;;;5038366;28;20049;-72
2023/08/20 07:43:35;;;;;;;15.13;7.50;;;20.30;99.90;;;;;;5041912;28;20052;-72
2023/08/20 07:46:01;;;;;;;13.05;7.25;;;20.40;99.90;;;;;;5043306;28;20106;-71
2023/08/20 07:48:27;;;;;;;14.48;7.68;;;20.50;99.90;;;;;;5047067;28;20045;-71
2023/08/20 07:50:52;;;;;;;11.88;7.03;;;20.50;99.90;;;;;;5025618;28;20041;-72
2023/08/20 07:53:18;;;;;;;13.45;7.28;;;20.50;99.90;;;;;;5043395;28;20120;-77
2023/08/20 07:55:44;;;;;;;13.40;7.05;;;20.50;99.90;;;;;;5045283;28;20041;-78
2023/08/20 07:58:10;;;;;;;12.88;7.28;;;20.60;99.90;;;;;;5038934;28;20481;-78
2023/08/20 08:00:36;;;;;;;12.05;6.25;;;20.70;99.90;;;;;;5037709;28;20037;-78
2023/08/20 08:03:01;;;;;;;13.82;7.38;;;20.70;99.90;;;;;;5041253;28;20048;-79
2023/08/20 08:05:29;;;;;;;12.90;6.50;;;20.80;99.90;;;;;;5046307;28;20092;-75
2023/08/20 08:07:55;;;;;;;13.75;6.57;;;20.80;99.90;;;;;;5040929;28;20048;-77
2023/08/20 08:10:21;;;;;;;11.65;5.28;;;20.90;99.90;;;;;;5049199;28;20056;-77
2023/08/20 08:12:48;;;;;;;11.52;5.38;;;20.90;99.90;;;;;;5042874;28;20045;-80
2023/08/20 08:15:14;;;;;;;11.27;5.00;;;21.00;99.90;;;;;;5050640;28;20439;-80
2023/08/20 08:17:40;;;;;;;9.38;5.22;;;21.00;99.90;;;;;;5044958;28;20120;-80
2023/08/20 08:20:06;;;;;;;15.15;5.22;;;21.10;99.90;;;;;;5038316;28;20135;-79
2023/08/20 08:22:32;;;;;;;10.27;4.70;;;21.20;99.90;;;;;;5049817;28;20045;-79
2023/08/20 08:24:58;;;;;;;10.77;4.45;;;21.20;99.90;;;;;;5050414;28;20398;-80
2023/08/20 08:27:23;;;;;;;10.70;3.70;;;21.30;99.90;;;;;;5060338;28;20049;-78
2023/08/20 08:29:50;;;;;;;11.35;4.00;;;21.40;99.90;;;;;;5048409;28;20492;-82
2023/08/20 08:32:16;;;;;;;10.75;3.78;;;21.40;99.90;;;;;;5045695;28;21145;-79
2023/08/20 08:34:42;;;;;;;10.98;4.38;;;21.50;99.90;;;;;;5039592;28;20045;-75
2023/08/20 08:37:07;;;;;;;10.70;4.10;;;21.60;99.90;;;;;;5040746;28;20064;-75
2023/08/20 08:39:33;;;;;;;9.35;3.80;;;21.70;99.90;;;;;;5049000;28;20446;-75
2023/08/20 08:42:07;;;;;;;8.10;3.35;;;21.70;99.90;;;;;;5048731;28;20068;-76
2023/08/20 08:44:33;;;;;;;8.60;3.08;;;21.80;99.90;;;;;;5047669;28;20137;-75
2023/08/20 08:46:59;;;;;;;8.90;2.87;;;21.90;99.90;;;;;;5035770;28;20404;-76
2023/08/20 08:49:26;;;;;;;10.73;2.90;;;21.90;99.90;;;;;;5045973;28;20091;-76
2023/08/20 08:51:55;;;;;;;8.73;3.10;;;22.00;99.90;;;;;;5044844;28;20428;-76
2023/08/20 08:54:21;;;;;;;9.55;3.40;;;22.10;99.90;;;;;;5037707;28;20468;-76
2023/08/20 08:56:46;;;;;;;7.78;2.75;;;22.10;99.90;;;;;;5049056;28;20477;-76
2023/08/20 08:59:12;;;;;;;8.07;2.40;;;22.10;99.90;;;;;;5043853;28;20099;-74
2023/08/20 09:01:41;;;;;;;10.25;2.97;;;22.20;99.90;;;;;;5047167;28;20051;-74
2023/08/20 09:04:07;;;;;;;8.43;2.65;;;22.20;99.90;;;;;;5044295;28;20095;-72
2023/08/20 09:06:49;;;;;;;7.75;2.30;;;22.30;99.90;;;;;;5045889;28;20472;-73
2023/08/20 09:09:16;;;;;;;8.90;2.30;;;22.30;99.90;;;;;;5044536;28;20037;-79
2023/08/20 09:11:42;;;;;;;;;;;22.40;99.90;;;;;;5040438;28;20042;-75
2023/08/20 09:14:20;;;;;;;8.23;2.03;;;22.50;99.90;;;;;;5043230;28;20015;-77
2023/08/20 09:16:45;;;;;;;6.45;2.00;;;22.50;99.90;;;;;;5040996;28;20435;-74
2023/08/20 09:19:11;;;;;;;6.85;1.90;;;22.60;99.90;;;;;;5039775;28;20038;-75
2023/08/20 09:21:36;;;;;;;6.40;1.90;;;22.60;99.90;;;;;;5033230;28;20034;-76
2023/08/20 09:24:02;;;;;;;7.25;2.53;;;22.70;99.90;;;;;;5036767;28;20048;-75
2023/08/20 09:26:28;;;;;;;4.78;1.70;;;22.70;99.90;;;;;;5047933;28;20675;-76
2023/08/20 09:28:58;;;;;;;7.70;2.53;;;22.80;99.90;;;;;;5043329;28;20443;-75
2023/08/20 09:31:38;;;;;;;6.78;1.95;;;22.90;99.90;;;;;;5047155;28;20080;-76
2023/08/20 09:34:04;;;;;;;4.28;1.70;;;22.90;99.90;;;;;;5038560;28;20690;-76
2023/08/20 09:36:34;;;;;;;6.07;1.77;;;23.00;99.90;;;;;;5038461;28;20041;-75
2023/08/20 09:39:02;;;;;;;4.30;1.60;;;23.00;99.90;;;;;;5042788;28;20467;-76
2023/08/20 09:41:29;;;;;;;4.72;1.60;;;23.10;99.90;;;;;;5045781;28;20044;-76
2023/08/20 09:43:58;;;;;;;5.93;1.60;;;23.20;99.90;;;;;;5046081;28;20036;-75
2023/08/20 09:46:27;;;;;;;4.68;1.60;;;23.20;99.90;;;;;;5045325;28;20438;-74
2023/08/20 09:48:57;;;;;;;5.95;1.60;;;23.30;99.90;;;;;;5040962;28;20128;-76
2023/08/20 09:51:28;;;;;;;4.22;1.55;;;23.40;99.90;;;;;;5039675;28;20943;-74
2023/08/20 09:54:01;;;;;;;4.85;1.60;;;23.50;99.90;;;;;;5045920;28;20045;-76
2023/08/20 09:56:35;;;;;;;3.35;1.30;;;23.50;99.90;;;;;;5042634;28;20045;-77
2023/08/20 09:59:01;;;;;;;5.32;1.52;;;23.50;99.90;;;;;;5038338;28;20047;-77
2023/08/20 10:01:28;;;;;;;4.95;1.42;;;23.60;99.90;;;;;;5046188;28;20485;-77
2023/08/20 10:03:54;;;;;;;4.57;1.57;;;23.60;99.90;;;;;;5046757;28;20049;-77
2023/08/20 10:06:20;;;;;;;4.23;1.43;;;23.60;99.90;;;;;;5047493;28;20033;-77
2023/08/20 10:08:49;;;;;;;5.85;1.65;;;23.70;99.90;;;;;;5048059;28;20419;-77
2023/08/20 10:11:15;;;;;;;6.05;1.50;;;23.70;99.90;;;;;;5040266;28;20045;-77
2023/08/20 10:13:41;;;;;;;4.63;1.77;;;23.80;99.90;;;;;;5047276;28;20059;-77
2023/08/20 10:16:06;;;;;;;3.33;1.27;;;23.80;99.90;;;;;;5046137;28;20053;-77
2023/08/20 10:18:35;;;;;;;5.53;1.70;;;23.90;99.90;;;;;;5048655;28;20069;-77
2023/08/20 10:21:02;;;;;;;9.50;1.83;;;24.00;99.90;;;;;;5047259;28;20044;-77
2023/08/20 10:23:28;;;;;;;5.47;1.73;;;24.00;99.90;;;;;;5043122;28;20057;-77
2023/08/20 10:25:54;;;;;;;5.10;1.52;;;24.00;99.90;;;;;;5046682;28;20539;-77
2023/08/20 10:28:25;;;;;;;4.60;1.40;;;24.00;99.90;;;;;;5047316;28;20053;-77
2023/08/20 10:31:03;;;;;;;6.57;1.80;;;24.00;99.90;;;;;;5051191;28;20496;-77
2023/08/20 10:33:29;;;;;;;6.07;2.00;;;24.10;99.90;;;;;;5066062;28;20056;-77
2023/08/20 10:35:54;;;;;;;4.53;1.55;;;24.20;99.90;;;;;;5052931;28;20124;-77
2023/08/20 10:38:21;;;;;;;4.78;1.20;;;24.20;99.90;;;;;;5059616;28;20041;-77
2023/08/20 10:40:56;;;;;;;3.78;1.20;;;24.20;99.90;;;;;;5045900;28;20037;-76
2023/08/20 10:43:29;;;;;;;4.15;1.40;;;24.30;99.90;;;;;;5044136;28;20056;-78
2023/08/20 10:46:23;;;;;;;4.10;1.30;;;24.40;99.90;;;;;;5050390;28;20128;-79
2023/08/20 10:48:50;;;;;;;4.57;1.20;;;24.50;99.90;;;;;;5050033;28;20107;-76
2023/08/20 10:51:24;;;;;;;3.67;1.15;;;24.50;99.90;;;;;;5052577;28;20045;-78
2023/08/20 10:54:05;;;;;;;3.80;1.27;;;24.60;99.90;;;;;;5041568;28;20042;-77
2023/08/20 10:56:48;;;;;;;4.82;1.33;;;24.60;99.90;;;;;;5042979;28;20380;-76
2023/08/20 10:59:17;;;;;;;3.65;1.20;;;24.70;99.90;;;;;;5048992;28;20055;-77
2023/08/20 11:01:55;;;;;;;4.22;0.90;;;24.80;99.90;;;;;;5040236;28;20055;-76
2023/08/20 11:04:28;;;;;;;4.57;1.10;;;24.90;99.90;;;;;;5061684;28;20114;-76
2023/08/20 11:06:55;;;;;;;5.68;1.40;;;24.90;99.90;;;;;;5047950;28;20129;-76
2023/08/20 11:09:22;;;;;;;6.38;1.10;;;24.90;99.90;;;;;;5049415;28;20037;-76
2023/08/20 11:11:48;;;;;;;5.45;1.30;;;24.90;99.90;;;;;;5049369;28;20037;-76
2023/08/20 11:14:15;;;;;;;3.67;1.02;;;24.90;99.90;;;;;;5051596;28;20040;-76
2023/08/20 11:16:45;;;;;;;3.30;0.90;;;24.90;99.90;;;;;;5055912;28;20059;-76
2023/08/20 11:19:11;;;;;;;4.18;1.10;;;25.00;99.90;;;;;;5058357;28;20090;-76
2023/08/20 11:21:41;;;;;;;3.65;1.20;;;25.00;99.90;;;;;;5040021;28;20119;-76
2023/08/20 11:24:07;;;;;;;4.22;1.30;;;25.10;99.90;;;;;;5065542;28;20052;-76
2023/08/20 11:26:37;;;;;;;4.55;1.35;;;25.10;99.90;;;;;;5050877;28;20447;-76
2023/08/20 11:29:06;;;;;;;6.85;1.40;;;25.20;99.90;;;;;;5049803;28;20365;-76
2023/08/20 11:31:32;;;;;;;4.32;1.30;;;25.30;99.90;;;;;;5065277;28;20072;-76
2023/08/20 11:33:58;;;;;;;7.43;1.63;;;25.30;99.90;;;;;;5048376;28;20073;-76
2023/08/20 11:36:24;;;;;;;3.50;1.05;;;25.40;99.90;;;;;;5045345;28;20079;-76
2023/08/20 11:38:54;;;;;;;3.63;1.00;;;25.40;99.90;;;;;;5051072;28;20045;-76
2023/08/20 11:41:20;;;;;;;3.45;1.13;;;25.50;99.90;;;;;;5048276;28;20045;-76
2023/08/20 11:43:48;;;;;;;5.25;1.30;;;25.50;99.90;;;;;;5048708;28;20499;-76
2023/08/20 11:46:15;;;;;;;3.92;1.10;;;25.60;99.90;;;;;;5051386;28;20045;-76
2023/08/20 11:49:03;;;;;;;8.05;1.80;;;25.60;99.90;;;;;;5051697;28;20063;-75
2023/08/20 11:51:30;;;;;;;4.38;1.17;;;25.70;99.90;;;;;;5043167;28;20135;-76
2023/08/20 11:53:56;;;;;;;;;;;25.80;99.90;;;;;;5044345;28;20076;-76
2023/08/20 11:56:22;;;;;;;3.90;1.30;;;25.80;99.90;;;;;;5039119;28;19928;-76
2023/08/20 11:58:52;;;;;;;7.17;1.60;;;25.80;99.90;;;;;;5050001;28;20040;-76
2023/08/20 12:01:18;;;;;;;3.67;1.08;;;25.80;99.90;;;;;;5049045;28;20040;-76
2023/08/20 12:03:44;;;;;;;4.93;1.20;;;25.80;99.90;;;;;;5049753;28;20439;-75
2023/08/20 12:06:20;;;;;;;3.47;1.20;;;25.80;99.90;;;;;;5050415;28;20090;-76
2023/08/20 12:08:46;;;;;;;3.13;0.98;;;25.90;99.90;;;;;;5049706;28;20673;-78
2023/08/20 12:11:12;;;;;;;6.07;1.20;;;25.90;99.90;;;;;;5044608;28;20037;-79
2023/08/20 12:13:38;;;;;;;3.95;1.30;;;25.90;99.90;;;;;;5040483;28;20046;-78
2023/08/20 12:16:04;;;;;;;3.27;1.00;;;25.90;99.90;;;;;;5046753;28;20040;-79
2023/08/20 12:18:30;;;;;;;5.55;1.38;;;25.90;99.90;;;;;;5042811;28;20534;-79
2023/08/20 12:20:56;;;;;;;5.68;1.08;;;26.00;99.90;;;;;;5045312;28;20045;-79
2023/08/20 12:23:22;;;;;;;2.43;1.00;;;26.10;99.90;;;;;;5046886;28;20148;-79
2023/08/20 12:25:51;;;;;;;2.67;0.80;;;26.20;99.90;;;;;;5048510;28;20068;-79
2023/08/20 12:28:17;;;;;;;3.15;1.00;;;26.30;99.90;;;;;;5050063;28;20116;-79
2023/08/20 12:30:44;;;;;;;4.77;1.00;;;26.30;99.70;;;;;;5059886;28;20168;-79
2023/08/20 12:33:10;;;;;;;2.97;0.90;;;26.20;99.60;;;;;;5041444;28;20048;-79
2023/08/20 12:35:36;;;;;;;;;;;26.30;99.20;;;;;;5050146;28;20102;-79
2023/08/20 12:38:02;;;;;;;3.03;0.75;;;26.30;98.10;;;;;;5040916;28;19925;-79
2023/08/20 12:40:29;;;;;;;2.40;0.60;;;26.30;98.30;;;;;;5048293;28;20439;-79
2023/08/20 12:42:54;;;;;;;2.88;0.70;;;26.30;97.40;;;;;;5046635;28;20438;-79